createdAt,value
2022-12-01T00:00:17.947Z,5.2
2022-12-01T00:01:17.765Z,5.2
2022-12-01T00:02:18.157Z,5.2
2022-12-01T00:03:17.862Z,5.2
2022-12-01T00:04:18.037Z,5.2
2022-12-01T00:05:17.848Z,5.2
2022-12-01T00:06:18.081Z,5.2
2022-12-01T00:07:17.917Z,5.2
2022-12-01T00:08:17.783Z,5.2
2022-12-01T00:09:19.868Z,5.2
2022-12-01T00:10:17.766Z,5.2
2022-12-01T00:11:17.766Z,5.2
2022-12-01T00:12:17.767Z,5.2
2022-12-01T00:13:17.780Z,5.2
2022-12-01T00:14:17.765Z,5.2
2022-12-01T00:15:17.762Z,5.2
2022-12-01T00:16:17.779Z,5.2
2022-12-01T00:17:17.760Z,5.2
2022-12-01T00:18:17.764Z,5.2
2022-12-01T00:19:17.776Z,5.2
2022-12-01T00:20:17.758Z,5.2
2022-12-01T00:21:17.761Z,5.2
2022-12-01T00:22:17.775Z,5.2
2022-12-01T00:23:17.767Z,5.2
2022-12-01T00:24:17.784Z,5.2
2022-12-01T00:25:17.767Z,5.2
2022-12-01T00:26:17.767Z,5.2
2022-12-01T00:27:17.757Z,5.2
2022-12-01T00:28:17.760Z,5.2
2022-12-01T00:29:17.783Z,5.2
2022-12-01T00:30:17.763Z,5.2
2022-12-01T00:31:17.772Z,5.2
2022-12-01T00:32:17.810Z,5.2
2022-12-01T00:33:17.763Z,5.2
2022-12-01T00:34:17.775Z,5.2
2022-12-01T00:35:17.764Z,5.2
2022-12-01T00:36:17.784Z,5.2
2022-12-01T00:37:18.027Z,5.2
2022-12-01T00:38:17.763Z,5.2
2022-12-01T00:39:17.771Z,5.2
2022-12-01T00:40:17.770Z,5.2
2022-12-01T00:41:17.759Z,5.2
2022-12-01T00:42:17.762Z,5.2
2022-12-01T00:43:17.761Z,5.2
2022-12-01T00:44:17.760Z,5.2
2022-12-01T00:45:17.760Z,5.2
2022-12-01T00:46:17.790Z,5.2
2022-12-01T00:47:17.756Z,5.2
2022-12-01T00:48:17.763Z,5.2
2022-12-01T00:49:17.765Z,5.2
2022-12-01T00:50:17.761Z,5.2
2022-12-01T00:51:17.758Z,5.2
2022-12-01T00:52:17.758Z,5.2
2022-12-01T00:53:17.758Z,5.2
2022-12-01T00:54:17.770Z,5.2
2022-12-01T00:55:17.757Z,5.2
2022-12-01T00:56:17.763Z,5.2
2022-12-01T00:57:17.756Z,5.2
2022-12-01T00:58:17.760Z,5.2
2022-12-01T00:59:17.756Z,5.2
2022-12-01T01:00:17.757Z,5.2
2022-12-01T01:01:17.793Z,5.2
2022-12-01T01:02:17.831Z,5.2
2022-12-01T01:03:17.764Z,5.2
2022-12-01T01:04:17.777Z,5.2
2022-12-01T01:05:17.759Z,5.2
2022-12-01T01:06:17.757Z,5.2
2022-12-01T01:07:17.764Z,5.2
2022-12-01T01:08:17.761Z,5.2
2022-12-01T01:09:17.768Z,5.2
2022-12-01T01:10:17.768Z,5.2
2022-12-01T01:11:17.759Z,5.1
2022-12-01T01:12:17.763Z,5.1
2022-12-01T01:13:17.760Z,5.1
2022-12-01T01:14:17.781Z,5.2
2022-12-01T01:15:17.774Z,5.2
2022-12-01T01:16:17.829Z,5.1
2022-12-01T01:17:17.759Z,5.1
2022-12-01T01:18:17.769Z,5.1
2022-12-01T01:19:17.776Z,5.1
2022-12-01T01:20:17.789Z,5.1
2022-12-01T01:21:17.768Z,5.1
2022-12-01T01:22:17.762Z,5.1
2022-12-01T01:23:17.806Z,5.1
2022-12-01T01:24:17.776Z,5.1
2022-12-01T01:25:17.759Z,5.1
2022-12-01T01:26:17.761Z,5.1
2022-12-01T01:27:17.764Z,5.1
2022-12-01T01:28:17.764Z,5.1
2022-12-01T01:29:17.759Z,5.1
2022-12-01T01:30:17.759Z,5.1
2022-12-01T01:31:17.919Z,5.1
2022-12-01T01:32:17.776Z,5.1
2022-12-01T01:33:17.764Z,5.1
2022-12-01T01:34:17.761Z,5.1
2022-12-01T01:35:17.766Z,5.1
2022-12-01T01:36:17.764Z,5.1
2022-12-01T01:37:17.763Z,5.1
2022-12-01T01:38:17.763Z,5.1
2022-12-01T01:39:17.760Z,5.1
2022-12-01T01:40:17.765Z,5.1
2022-12-01T01:41:17.763Z,5.1
2022-12-01T01:42:17.763Z,5.1
2022-12-01T01:43:17.759Z,5.1
2022-12-01T01:44:17.766Z,5.1
2022-12-01T01:45:17.759Z,5.1
2022-12-01T01:46:17.997Z,5.1
2022-12-01T01:47:17.765Z,5.1
2022-12-01T01:48:17.766Z,5.1
2022-12-01T01:49:17.761Z,5.1
2022-12-01T01:50:17.765Z,5.1
2022-12-01T01:51:17.761Z,5.1
2022-12-01T01:52:17.778Z,5.1
2022-12-01T01:53:17.767Z,5.1
2022-12-01T01:54:17.779Z,5.1
2022-12-01T01:55:17.763Z,5.1
2022-12-01T01:56:17.759Z,5.1
2022-12-01T01:57:17.989Z,5.1
2022-12-01T01:58:18.177Z,5.1
2022-12-01T01:59:17.766Z,5.1
2022-12-01T02:00:17.765Z,5.1
2022-12-01T02:01:17.805Z,5.1
2022-12-01T02:02:17.817Z,5.1
2022-12-01T02:03:17.760Z,5.2
2022-12-01T02:04:17.770Z,5.2
2022-12-01T02:05:17.761Z,5.1
2022-12-01T02:06:17.758Z,5.2
2022-12-01T02:07:17.759Z,5.1
2022-12-01T02:08:17.763Z,5.2
2022-12-01T02:09:17.758Z,5.2
2022-12-01T02:10:17.763Z,5.1
2022-12-01T02:11:17.764Z,5.2
2022-12-01T02:12:17.757Z,5.1
2022-12-01T02:13:17.759Z,5.2
2022-12-01T02:14:17.763Z,5.2
2022-12-01T02:15:17.757Z,5.2
2022-12-01T02:16:17.813Z,5.2
2022-12-01T02:17:17.759Z,5.2
2022-12-01T02:18:17.761Z,5.2
2022-12-01T02:19:17.762Z,5.2
2022-12-01T02:20:17.759Z,5.1
2022-12-01T02:21:17.762Z,5.1
2022-12-01T02:22:17.767Z,5.1
2022-12-01T02:23:17.762Z,5.1
2022-12-01T02:24:17.761Z,5.1
2022-12-01T02:25:17.757Z,5.1
2022-12-01T02:26:17.761Z,5.1
2022-12-01T02:27:17.757Z,5.1
2022-12-01T02:28:17.762Z,5.1
2022-12-01T02:29:17.761Z,5.1
2022-12-01T02:30:17.801Z,5.1
2022-12-01T02:31:17.839Z,5
2022-12-01T02:32:17.774Z,5
2022-12-01T02:33:17.819Z,5
2022-12-01T02:34:17.763Z,5
2022-12-01T02:35:17.763Z,5
2022-12-01T02:36:17.761Z,5
2022-12-01T02:37:17.760Z,5
2022-12-01T02:38:17.765Z,5
2022-12-01T02:39:17.769Z,5
2022-12-01T02:40:17.766Z,5
2022-12-01T02:41:17.758Z,5
2022-12-01T02:42:17.759Z,5
2022-12-01T02:43:17.761Z,5
2022-12-01T02:44:17.757Z,5
2022-12-01T02:45:17.767Z,5
2022-12-01T02:46:17.833Z,5
2022-12-01T02:47:17.813Z,5
2022-12-01T02:48:17.762Z,5
2022-12-01T02:49:17.763Z,5
2022-12-01T02:50:17.761Z,5
2022-12-01T02:51:17.762Z,5
2022-12-01T02:52:17.761Z,5
2022-12-01T02:53:17.758Z,5
2022-12-01T02:54:17.761Z,5
2022-12-01T02:55:17.774Z,5
2022-12-01T02:56:17.764Z,5
2022-12-01T02:57:17.757Z,5
2022-12-01T02:58:17.765Z,5
2022-12-01T02:59:17.764Z,5
2022-12-01T03:00:17.764Z,5
2022-12-01T03:01:17.847Z,5
2022-12-01T03:02:17.832Z,5
2022-12-01T03:03:17.761Z,5
2022-12-01T03:04:17.765Z,5
2022-12-01T03:05:17.788Z,5
2022-12-01T03:06:17.757Z,5
2022-12-01T03:07:17.765Z,4.9
2022-12-01T03:08:17.765Z,5
2022-12-01T03:09:17.762Z,5
2022-12-01T03:10:17.785Z,4.9
2022-12-01T03:11:17.769Z,4.9
2022-12-01T03:12:17.884Z,4.9
2022-12-01T03:13:18.110Z,4.9
2022-12-01T03:14:17.766Z,4.9
2022-12-01T03:15:17.761Z,4.9
2022-12-01T03:16:18.068Z,4.9
2022-12-01T03:17:17.773Z,4.9
2022-12-01T03:18:17.760Z,4.9
2022-12-01T03:19:17.785Z,4.9
2022-12-01T03:20:17.758Z,4.9
2022-12-01T03:21:17.763Z,4.9
2022-12-01T03:22:17.774Z,4.9
2022-12-01T03:23:17.757Z,4.9
2022-12-01T03:24:18.902Z,4.9
2022-12-01T03:25:18.033Z,4.9
2022-12-01T03:26:17.859Z,4.9
2022-12-01T03:27:18.039Z,4.9
2022-12-01T03:28:22.364Z,4.9
2022-12-01T03:29:17.762Z,4.8
2022-12-01T03:30:17.761Z,4.8
2022-12-01T03:31:17.839Z,4.8
2022-12-01T03:32:17.765Z,4.8
2022-12-01T03:33:17.773Z,4.8
2022-12-01T03:34:17.911Z,4.8
2022-12-01T03:35:17.767Z,4.8
2022-12-01T03:36:18.077Z,4.8
2022-12-01T03:37:17.923Z,4.8
2022-12-01T03:38:17.764Z,4.8
2022-12-01T03:39:17.979Z,4.8
2022-12-01T03:40:17.761Z,4.8
2022-12-01T03:41:18.051Z,4.8
2022-12-01T03:42:17.888Z,4.8
2022-12-01T03:43:17.767Z,4.8
2022-12-01T03:44:17.758Z,4.8
2022-12-01T03:45:17.767Z,4.8
2022-12-01T03:46:17.881Z,4.8
2022-12-01T03:47:17.765Z,4.8
2022-12-01T03:48:17.758Z,4.8
2022-12-01T03:49:17.762Z,4.8
2022-12-01T03:50:17.765Z,4.8
2022-12-01T03:51:17.769Z,4.8
2022-12-01T03:52:17.762Z,4.8
2022-12-01T03:53:17.758Z,4.8
2022-12-01T03:54:17.762Z,4.8
2022-12-01T03:55:17.768Z,4.8
2022-12-01T03:56:17.785Z,4.8
2022-12-01T03:57:17.780Z,4.8
2022-12-01T03:58:17.766Z,4.8
2022-12-01T03:59:17.767Z,4.8
2022-12-01T04:00:17.758Z,4.8
2022-12-01T04:01:17.803Z,4.8
2022-12-01T04:02:17.769Z,4.8
2022-12-01T04:03:17.804Z,4.8
2022-12-01T04:04:17.767Z,4.8
2022-12-01T04:05:21.219Z,4.8
2022-12-01T04:06:17.783Z,4.8
2022-12-01T04:07:17.757Z,4.8
2022-12-01T04:08:17.758Z,4.8
2022-12-01T04:09:17.763Z,4.8
2022-12-01T04:10:17.763Z,4.8
2022-12-01T04:11:17.774Z,4.8
2022-12-01T04:12:18.034Z,4.8
2022-12-01T04:13:17.758Z,4.8
2022-12-01T04:14:17.758Z,4.8
2022-12-01T04:15:17.758Z,4.8
2022-12-01T04:16:17.781Z,4.8
2022-12-01T04:17:17.766Z,4.8
2022-12-01T04:18:17.785Z,4.8
2022-12-01T04:19:17.770Z,4.8
2022-12-01T04:20:17.758Z,4.8
2022-12-01T04:21:17.756Z,4.8
2022-12-01T04:22:17.760Z,4.8
2022-12-01T04:23:17.779Z,4.8
2022-12-01T04:24:17.762Z,4.8
2022-12-01T04:25:17.761Z,4.8
2022-12-01T04:26:17.765Z,4.8
2022-12-01T04:27:17.774Z,4.8
2022-12-01T04:28:17.802Z,4.8
2022-12-01T04:29:17.763Z,4.8
2022-12-01T04:30:17.760Z,4.8
2022-12-01T04:31:17.812Z,4.8
2022-12-01T04:32:17.766Z,4.8
2022-12-01T04:33:17.781Z,4.8
2022-12-01T04:34:17.763Z,4.8
2022-12-01T04:35:17.764Z,4.7
2022-12-01T04:36:17.762Z,4.8
2022-12-01T04:37:17.760Z,4.8
2022-12-01T04:38:17.782Z,4.8
2022-12-01T04:39:17.761Z,4.8
2022-12-01T04:40:17.758Z,4.8
2022-12-01T04:41:17.813Z,4.8
2022-12-01T04:42:17.762Z,4.8
2022-12-01T04:43:17.778Z,4.8
2022-12-01T04:44:17.764Z,4.8
2022-12-01T04:45:17.762Z,4.8
2022-12-01T04:46:17.810Z,4.8
2022-12-01T04:47:17.764Z,4.8
2022-12-01T04:48:17.777Z,4.8
2022-12-01T04:49:17.758Z,4.8
2022-12-01T04:50:17.758Z,4.8
2022-12-01T04:51:17.762Z,4.8
2022-12-01T04:52:17.768Z,4.8
2022-12-01T04:53:17.776Z,4.8
2022-12-01T04:54:17.766Z,4.8
2022-12-01T04:55:17.956Z,4.8
2022-12-01T04:56:17.763Z,4.7
2022-12-01T04:57:17.762Z,4.8
2022-12-01T04:58:17.781Z,4.8
2022-12-01T04:59:17.768Z,4.8
2022-12-01T05:00:17.764Z,4.8
2022-12-01T05:01:17.846Z,4.8
2022-12-01T05:02:17.784Z,4.7
2022-12-01T05:03:17.779Z,4.7
2022-12-01T05:04:17.759Z,4.7
2022-12-01T05:05:17.762Z,4.7
2022-12-01T05:06:17.762Z,4.7
2022-12-01T05:07:17.765Z,4.7
2022-12-01T05:08:17.947Z,4.7
2022-12-01T05:09:18.039Z,4.7
2022-12-01T05:10:17.758Z,4.7
2022-12-01T05:11:17.760Z,4.7
2022-12-01T05:12:17.763Z,4.7
2022-12-01T05:13:17.757Z,4.7
2022-12-01T05:14:17.762Z,4.7
2022-12-01T05:15:17.759Z,4.7
2022-12-01T05:16:17.852Z,4.7
2022-12-01T05:17:17.766Z,4.7
2022-12-01T05:18:17.864Z,4.7
2022-12-01T05:19:17.817Z,4.7
2022-12-01T05:20:18.158Z,4.7
2022-12-01T05:21:18.518Z,4.7
2022-12-01T05:22:31.406Z,4.7
2022-12-01T05:23:18.169Z,4.7
2022-12-01T05:24:17.766Z,4.7
2022-12-01T05:25:18.045Z,4.7
2022-12-01T05:26:18.329Z,4.7
2022-12-01T05:27:17.899Z,4.6
2022-12-01T05:28:17.756Z,4.6
2022-12-01T05:29:17.764Z,4.7
2022-12-01T05:30:17.768Z,4.6
2022-12-01T05:31:17.838Z,4.6
2022-12-01T05:32:17.763Z,4.6
2022-12-01T05:33:17.759Z,4.6
2022-12-01T05:34:17.775Z,4.6
2022-12-01T05:35:17.765Z,4.6
2022-12-01T05:36:17.761Z,4.6
2022-12-01T05:37:17.764Z,4.6
2022-12-01T05:38:17.765Z,4.6
2022-12-01T05:39:17.760Z,4.6
2022-12-01T05:40:17.757Z,4.6
2022-12-01T05:41:17.761Z,4.6
2022-12-01T05:42:17.771Z,4.5
2022-12-01T05:43:17.760Z,4.5
2022-12-01T05:44:17.759Z,4.5
2022-12-01T05:45:17.767Z,4.5
2022-12-01T05:46:17.821Z,4.5
2022-12-01T05:47:17.761Z,4.5
2022-12-01T05:48:17.758Z,4.5
2022-12-01T05:49:17.763Z,4.5
2022-12-01T05:50:17.765Z,4.5
2022-12-01T05:51:17.842Z,4.5
2022-12-01T05:52:17.772Z,4.5
2022-12-01T05:53:17.764Z,4.5
2022-12-01T05:54:17.762Z,4.5
2022-12-01T05:55:17.763Z,4.5
2022-12-01T05:56:17.763Z,4.5
2022-12-01T05:57:17.769Z,4.5
2022-12-01T05:58:17.763Z,4.5
2022-12-01T05:59:17.766Z,4.5
2022-12-01T06:00:17.762Z,4.5
2022-12-01T06:01:17.762Z,4.5
2022-12-01T06:02:17.813Z,4.5
2022-12-01T06:03:17.761Z,4.5
2022-12-01T06:04:17.808Z,4.5
2022-12-01T06:05:17.762Z,4.5
2022-12-01T06:06:17.765Z,4.5
2022-12-01T06:07:17.764Z,4.5
2022-12-01T06:08:17.760Z,4.5
2022-12-01T06:09:17.758Z,4.5
2022-12-01T06:10:17.767Z,4.5
2022-12-01T06:11:17.767Z,4.5
2022-12-01T06:12:17.765Z,4.5
2022-12-01T06:13:17.767Z,4.5
2022-12-01T06:14:17.765Z,4.5
2022-12-01T06:15:17.763Z,4.5
2022-12-01T06:16:17.786Z,4.5
2022-12-01T06:17:17.813Z,4.5
2022-12-01T06:18:17.762Z,4.5
2022-12-01T06:19:17.761Z,4.5
2022-12-01T06:20:17.762Z,4.5
2022-12-01T06:21:17.764Z,4.5
2022-12-01T06:22:17.765Z,4.5
2022-12-01T06:23:17.763Z,4.5
2022-12-01T06:24:17.759Z,4.5
2022-12-01T06:25:17.759Z,4.5
2022-12-01T06:26:17.759Z,4.5
2022-12-01T06:27:17.760Z,4.5
2022-12-01T06:28:17.763Z,4.5
2022-12-01T06:29:17.759Z,4.5
2022-12-01T06:30:17.762Z,4.5
2022-12-01T06:31:17.842Z,4.5
2022-12-01T06:32:17.765Z,4.5
2022-12-01T06:33:17.767Z,4.6
2022-12-01T06:34:17.773Z,4.6
2022-12-01T06:35:17.758Z,4.5
2022-12-01T06:36:17.761Z,4.6
2022-12-01T06:37:17.760Z,4.6
2022-12-01T06:38:17.759Z,4.6
2022-12-01T06:39:17.760Z,4.6
2022-12-01T06:40:17.768Z,4.6
2022-12-01T06:41:17.760Z,4.6
2022-12-01T06:42:17.763Z,4.6
2022-12-01T06:43:17.844Z,4.6
2022-12-01T06:44:18.158Z,4.5
2022-12-01T06:45:18.369Z,4.5
2022-12-01T06:46:18.692Z,4.5
2022-12-01T06:47:17.787Z,4.5
2022-12-01T06:48:17.876Z,4.5
2022-12-01T06:49:17.762Z,4.5
2022-12-01T06:50:17.785Z,4.5
2022-12-01T06:51:17.764Z,4.5
2022-12-01T06:52:17.771Z,4.5
2022-12-01T06:53:17.760Z,4.5
2022-12-01T06:54:17.759Z,4.5
2022-12-01T06:55:17.772Z,4.5
2022-12-01T06:56:17.766Z,4.5
2022-12-01T06:57:17.757Z,4.5
2022-12-01T06:58:17.758Z,4.5
2022-12-01T06:59:17.765Z,4.5
2022-12-01T07:00:17.761Z,4.5
2022-12-01T07:01:17.941Z,4.5
2022-12-01T07:02:17.796Z,4.5
2022-12-01T07:03:17.765Z,4.5
2022-12-01T07:04:17.757Z,4.5
2022-12-01T07:05:17.764Z,4.5
2022-12-01T07:06:17.766Z,4.5
2022-12-01T07:07:17.763Z,4.5
2022-12-01T07:08:17.808Z,4.5
2022-12-01T07:09:17.762Z,4.5
2022-12-01T07:10:17.767Z,4.6
2022-12-01T07:11:17.759Z,4.6
2022-12-01T07:12:17.769Z,4.6
2022-12-01T07:13:18.865Z,4.6
2022-12-01T07:14:18.311Z,4.6
2022-12-01T07:15:17.804Z,4.6
2022-12-01T07:16:18.148Z,4.6
2022-12-01T07:17:17.874Z,4.6
2022-12-01T07:18:17.770Z,4.6
2022-12-01T07:19:17.757Z,4.6
2022-12-01T07:20:17.772Z,4.6
2022-12-01T07:21:17.758Z,4.6
2022-12-01T07:22:17.764Z,4.6
2022-12-01T07:23:17.764Z,4.6
2022-12-01T07:24:17.775Z,4.6
2022-12-01T07:25:17.762Z,4.6
2022-12-01T07:26:17.769Z,4.6
2022-12-01T07:27:17.766Z,4.6
2022-12-01T07:28:17.766Z,4.6
2022-12-01T07:29:17.771Z,4.6
2022-12-01T07:30:17.765Z,4.6
2022-12-01T07:31:17.845Z,4.6
2022-12-01T07:32:17.759Z,4.6
2022-12-01T07:33:17.763Z,4.6
2022-12-01T07:34:17.776Z,4.6
2022-12-01T07:35:17.761Z,4.6
2022-12-01T07:36:17.760Z,4.6
2022-12-01T07:37:17.765Z,4.6
2022-12-01T07:38:21.861Z,4.6
2022-12-01T07:39:17.783Z,4.6
2022-12-01T07:40:17.762Z,4.6
2022-12-01T07:41:17.770Z,4.6
2022-12-01T07:42:17.840Z,4.6
2022-12-01T07:43:17.765Z,4.6
2022-12-01T07:44:17.775Z,4.6
2022-12-01T07:45:17.762Z,4.6
2022-12-01T07:46:22.153Z,4.6
2022-12-01T07:47:17.762Z,4.6
2022-12-01T07:48:17.901Z,4.6
2022-12-01T07:49:17.779Z,4.6
2022-12-01T07:50:17.761Z,4.6
2022-12-01T07:51:17.786Z,4.6
2022-12-01T07:52:17.922Z,4.6
2022-12-01T07:53:17.759Z,4.6
2022-12-01T07:54:18.023Z,4.6
2022-12-01T07:55:18.260Z,4.6
2022-12-01T07:56:17.882Z,4.6
2022-12-01T07:57:18.795Z,4.6
2022-12-01T07:58:18.041Z,4.6
2022-12-01T07:59:17.838Z,4.6
2022-12-01T08:00:18.035Z,4.6
2022-12-01T08:01:18.024Z,4.6
2022-12-01T08:02:17.879Z,4.6
2022-12-01T08:03:18.012Z,4.6
2022-12-01T08:04:17.781Z,4.6
2022-12-01T08:05:17.758Z,4.6
2022-12-01T08:06:17.763Z,4.6
2022-12-01T08:07:17.761Z,4.6
2022-12-01T08:08:17.878Z,4.6
2022-12-01T08:09:17.778Z,4.7
2022-12-01T08:10:17.768Z,4.7
2022-12-01T08:11:17.769Z,4.6
2022-12-01T08:12:17.762Z,4.6
2022-12-01T08:13:17.758Z,4.7
2022-12-01T08:14:17.772Z,4.7
2022-12-01T08:15:17.758Z,4.7
2022-12-01T08:16:17.818Z,4.7
2022-12-01T08:17:17.767Z,4.7
2022-12-01T08:18:17.765Z,4.6
2022-12-01T08:19:17.758Z,4.6
2022-12-01T08:20:22.411Z,4.6
2022-12-01T08:21:17.763Z,4.7
2022-12-01T08:22:17.759Z,4.7
2022-12-01T08:23:17.762Z,4.7
2022-12-01T08:24:17.766Z,4.7
2022-12-01T08:25:17.860Z,4.7
2022-12-01T08:26:17.765Z,4.7
2022-12-01T08:27:17.764Z,4.7
2022-12-01T08:28:17.759Z,4.7
2022-12-01T08:29:20.275Z,4.7
2022-12-01T08:30:17.758Z,4.7
2022-12-01T08:31:17.841Z,4.7
2022-12-01T08:32:17.762Z,4.7
2022-12-01T08:33:17.757Z,4.7
2022-12-01T08:34:17.757Z,4.7
2022-12-01T08:35:17.763Z,4.7
2022-12-01T08:36:17.765Z,4.7
2022-12-01T08:37:17.758Z,4.7
2022-12-01T08:38:17.760Z,4.7
2022-12-01T08:39:17.770Z,4.7
2022-12-01T08:40:17.760Z,4.8
2022-12-01T08:41:17.768Z,4.8
2022-12-01T08:42:17.762Z,4.8
2022-12-01T08:43:34.632Z,4.8
2022-12-01T08:44:17.793Z,4.8
2022-12-01T08:45:17.760Z,4.8
2022-12-01T08:46:17.797Z,4.8
2022-12-01T08:47:18.986Z,4.8
2022-12-01T08:48:17.762Z,4.8
2022-12-01T08:49:17.777Z,4.8
2022-12-01T08:50:17.766Z,4.8
2022-12-01T08:51:17.761Z,4.8
2022-12-01T08:52:17.765Z,4.8
2022-12-01T08:53:17.770Z,4.8
2022-12-01T08:54:17.790Z,4.8
2022-12-01T08:55:17.763Z,4.8
2022-12-01T08:56:17.760Z,4.8
2022-12-01T08:57:17.778Z,4.8
2022-12-01T08:58:17.763Z,4.8
2022-12-01T08:59:17.758Z,4.8
2022-12-01T09:00:17.768Z,4.8
2022-12-01T09:01:17.893Z,4.8
2022-12-01T09:02:17.812Z,4.8
2022-12-01T09:03:17.789Z,4.8
2022-12-01T09:04:17.758Z,4.8
2022-12-01T09:05:17.770Z,4.8
2022-12-01T09:06:17.763Z,4.8
2022-12-01T09:07:21.491Z,4.8
2022-12-01T09:08:17.796Z,4.8
2022-12-01T09:09:17.764Z,4.8
2022-12-01T09:10:17.762Z,4.8
2022-12-01T09:11:17.763Z,4.8
2022-12-01T09:12:17.764Z,4.8
2022-12-01T09:13:17.766Z,4.8
2022-12-01T09:14:17.786Z,4.8
2022-12-01T09:15:17.768Z,4.8
2022-12-01T09:16:17.806Z,4.8
2022-12-01T09:17:17.779Z,4.8
2022-12-01T09:18:17.762Z,4.8
2022-12-01T09:19:23.609Z,4.8
2022-12-01T09:20:17.759Z,4.8
2022-12-01T09:21:17.764Z,4.8
2022-12-01T09:22:17.765Z,4.8
2022-12-01T09:23:17.765Z,4.8
2022-12-01T09:24:17.768Z,4.8
2022-12-01T09:25:17.757Z,4.8
2022-12-01T09:26:17.758Z,4.8
2022-12-01T09:27:17.763Z,4.8
2022-12-01T09:28:17.801Z,4.8
2022-12-01T09:29:17.766Z,4.8
2022-12-01T09:30:17.758Z,4.8
2022-12-01T09:31:17.941Z,4.8
2022-12-01T09:32:17.757Z,4.8
2022-12-01T09:33:17.758Z,4.8
2022-12-01T09:34:17.797Z,4.8
2022-12-01T09:35:20.807Z,4.8
2022-12-01T09:36:17.763Z,4.9
2022-12-01T09:37:17.844Z,4.9
2022-12-01T09:38:17.764Z,5
2022-12-01T09:39:17.787Z,5
2022-12-01T09:40:17.766Z,5
2022-12-01T09:41:17.762Z,5.1
2022-12-01T09:42:17.760Z,5.1
2022-12-01T09:43:17.763Z,5.1
2022-12-01T09:44:17.773Z,5.1
2022-12-01T09:45:17.764Z,5.1
2022-12-01T09:46:17.826Z,5.2
2022-12-01T09:47:17.765Z,5.2
2022-12-01T09:48:17.761Z,5.2
2022-12-01T09:49:17.778Z,5.2
2022-12-01T09:50:17.763Z,5.2
2022-12-01T09:51:17.765Z,5.2
2022-12-01T09:52:17.766Z,5.2
2022-12-01T09:53:17.762Z,5.2
2022-12-01T09:54:17.771Z,5.2
2022-12-01T09:55:17.758Z,5.2
2022-12-01T09:56:17.757Z,5.2
2022-12-01T09:57:17.762Z,5.2
2022-12-01T09:58:17.764Z,5.2
2022-12-01T09:59:17.777Z,5.2
2022-12-01T10:00:17.761Z,5.2
2022-12-01T10:01:19.071Z,5.2
2022-12-01T10:02:17.833Z,5.2
2022-12-01T10:03:17.760Z,5.2
2022-12-01T10:04:17.760Z,5.2
2022-12-01T10:05:17.962Z,5.2
2022-12-01T10:06:27.026Z,5.2
2022-12-01T10:07:17.762Z,5.2
2022-12-01T10:08:20.199Z,5.1
2022-12-01T10:09:17.766Z,5.2
2022-12-01T10:10:17.761Z,5.2
2022-12-01T10:11:17.762Z,5.2
2022-12-01T10:12:17.756Z,5.2
2022-12-01T10:13:17.758Z,5.2
2022-12-01T10:14:19.910Z,5.2
2022-12-01T10:15:17.756Z,5.2
2022-12-01T10:16:17.790Z,5.2
2022-12-01T10:17:17.766Z,5.2
2022-12-01T10:18:17.771Z,5.2
2022-12-01T10:19:18.135Z,5.2
2022-12-01T10:20:18.568Z,5.2
2022-12-01T10:21:18.587Z,5.1
2022-12-01T10:22:18.241Z,5.2
2022-12-01T10:23:17.759Z,5.2
2022-12-01T10:24:17.783Z,5.2
2022-12-01T10:25:17.765Z,5.2
2022-12-01T10:26:17.760Z,5.2
2022-12-01T10:27:17.763Z,5.2
2022-12-01T10:28:17.765Z,5.1
2022-12-01T10:29:17.769Z,5.1
2022-12-01T10:30:17.770Z,5.1
2022-12-01T10:31:17.789Z,5.1
2022-12-01T10:32:17.769Z,5.2
2022-12-01T10:33:17.761Z,5.2
2022-12-01T10:34:17.765Z,5.2
2022-12-01T10:35:17.757Z,5.2
2022-12-01T10:36:17.768Z,5.2
2022-12-01T10:37:17.773Z,5.2
2022-12-01T10:38:17.765Z,5.2
2022-12-01T10:39:17.765Z,5.2
2022-12-01T10:40:17.758Z,5.2
2022-12-01T10:41:17.767Z,5.2
2022-12-01T10:42:17.758Z,5.2
2022-12-01T10:43:17.758Z,5.2
2022-12-01T10:44:18.760Z,5.2
2022-12-01T10:45:18.953Z,5.2
2022-12-01T10:46:18.106Z,5.2
2022-12-01T10:47:17.906Z,5.2
2022-12-01T10:48:17.760Z,5.2
2022-12-01T10:49:17.789Z,5.2
2022-12-01T10:50:17.787Z,5.2
2022-12-01T10:51:17.766Z,5.2
2022-12-01T10:52:17.757Z,5.2
2022-12-01T10:53:17.818Z,5.2
2022-12-01T10:54:18.041Z,5.2
2022-12-01T10:55:17.757Z,5.2
2022-12-01T10:56:17.764Z,5.2
2022-12-01T10:57:17.761Z,5.2
2022-12-01T10:58:17.765Z,5.2
2022-12-01T10:59:17.782Z,5.2
2022-12-01T11:00:36.193Z,5.2
2022-12-01T11:01:17.811Z,5.2
2022-12-01T11:02:17.864Z,5.2
2022-12-01T11:03:21.447Z,5.2
2022-12-01T11:04:17.779Z,5.2
2022-12-01T11:05:17.762Z,5.2
2022-12-01T11:06:17.785Z,5.2
2022-12-01T11:07:17.767Z,5.2
2022-12-01T11:08:17.767Z,5.2
2022-12-01T11:09:21.496Z,5.2
2022-12-01T11:10:17.762Z,5.2
2022-12-01T11:11:17.774Z,5.2
2022-12-01T11:12:17.772Z,5.2
2022-12-01T11:13:17.762Z,5.2
2022-12-01T11:14:17.775Z,5.3
2022-12-01T11:15:17.762Z,5.3
2022-12-01T11:16:17.789Z,5.3
2022-12-01T11:17:17.794Z,5.3
2022-12-01T11:18:17.765Z,5.2
2022-12-01T11:19:20.498Z,5.2
2022-12-01T11:20:18.090Z,5.2
2022-12-01T11:21:17.909Z,5.2
2022-12-01T11:22:17.791Z,5.2
2022-12-01T11:23:18.039Z,5.2
2022-12-01T11:24:17.833Z,5.2
2022-12-01T11:25:18.039Z,5.3
2022-12-01T11:26:17.824Z,5.3
2022-12-01T11:27:18.048Z,5.3
2022-12-01T11:28:17.905Z,5.2
2022-12-01T11:29:17.759Z,5.3
2022-12-01T11:30:17.914Z,5.3
2022-12-01T11:31:17.843Z,5.3
2022-12-01T11:32:18.099Z,5.3
2022-12-01T11:33:17.760Z,5.3
2022-12-01T11:34:17.768Z,5.3
2022-12-01T11:35:17.775Z,5.2
2022-12-01T11:36:17.767Z,5.2
2022-12-01T11:37:17.763Z,5.2
2022-12-01T11:38:30.220Z,5.2
2022-12-01T11:39:17.773Z,5.2
2022-12-01T11:40:17.777Z,5.2
2022-12-01T11:41:17.770Z,5.2
2022-12-01T11:42:17.760Z,5.2
2022-12-01T11:43:17.763Z,5.2
2022-12-01T11:44:35.590Z,5.2
2022-12-01T11:45:17.782Z,5.2
2022-12-01T11:46:17.800Z,5.2
2022-12-01T11:47:23.009Z,5.2
2022-12-01T11:48:17.759Z,5.2
2022-12-01T11:49:17.775Z,5.2
2022-12-01T11:50:17.779Z,5.2
2022-12-01T11:51:17.762Z,5.2
2022-12-01T11:52:17.759Z,5.2
2022-12-01T11:53:17.770Z,5.2
2022-12-01T11:54:17.778Z,5.2
2022-12-01T11:55:17.764Z,5.2
2022-12-01T11:56:17.758Z,5.2
2022-12-01T11:57:33.545Z,5.2
2022-12-01T11:58:17.795Z,5.1
2022-12-01T11:59:17.779Z,5.1
2022-12-01T12:00:17.764Z,5.2
2022-12-01T12:01:21.900Z,5.1
2022-12-01T12:02:17.840Z,5.1
2022-12-01T12:03:17.793Z,5.2
2022-12-01T12:04:17.777Z,5.1
2022-12-01T12:05:17.760Z,5.1
2022-12-01T12:06:39.286Z,5.1
2022-12-01T12:07:17.789Z,5.1
2022-12-01T12:08:17.764Z,5.1
2022-12-01T12:09:17.761Z,5.1
2022-12-01T12:10:17.785Z,5.1
2022-12-01T12:11:17.765Z,5.1
2022-12-01T12:12:17.781Z,5.1
2022-12-01T12:13:17.768Z,5.1
2022-12-01T12:14:17.766Z,5.1
2022-12-01T12:15:17.965Z,5.1
2022-12-01T12:16:17.768Z,5.1
2022-12-01T12:17:17.819Z,5.1
2022-12-01T12:18:17.761Z,5.1
2022-12-01T12:19:17.765Z,5.1
2022-12-01T12:20:18.057Z,5.1
2022-12-01T12:21:17.767Z,5.1
2022-12-01T12:22:17.785Z,5.1
2022-12-01T12:23:17.766Z,5.1
2022-12-01T12:24:17.771Z,5.1
2022-12-01T12:25:17.768Z,5.1
2022-12-01T12:26:17.766Z,5.1
2022-12-01T12:27:17.783Z,5.1
2022-12-01T12:28:17.769Z,5.1
2022-12-01T12:29:17.773Z,5.1
2022-12-01T12:30:17.804Z,5.1
2022-12-01T12:31:17.802Z,5.2
2022-12-01T12:32:17.775Z,5.2
2022-12-01T12:33:17.767Z,5.2
2022-12-01T12:34:17.759Z,5.2
2022-12-01T12:35:17.761Z,5.2
2022-12-01T12:36:17.759Z,5.2
2022-12-01T12:37:17.786Z,5.2
2022-12-01T12:38:17.770Z,5.2
2022-12-01T12:39:17.765Z,5.2
2022-12-01T12:40:17.763Z,5.2
2022-12-01T12:41:17.766Z,5.2
2022-12-01T12:42:17.762Z,5.2
2022-12-01T12:43:17.760Z,5.2
2022-12-01T12:44:17.766Z,5.2
2022-12-01T12:45:17.763Z,5.2
2022-12-01T12:46:17.820Z,5.2
2022-12-01T12:47:17.757Z,5.2
2022-12-01T12:48:17.767Z,5.2
2022-12-01T12:49:20.050Z,5.2
2022-12-01T12:50:17.758Z,5.2
2022-12-01T12:51:17.761Z,5.2
2022-12-01T12:52:17.768Z,5.2
2022-12-01T12:53:17.850Z,5.1
2022-12-01T12:54:17.809Z,5.1
2022-12-01T12:55:17.765Z,5.1
2022-12-01T12:56:17.862Z,5.1
2022-12-01T12:57:17.766Z,5.1
2022-12-01T12:58:17.764Z,5
2022-12-01T12:59:17.916Z,5
2022-12-01T13:00:17.762Z,5
2022-12-01T13:01:17.822Z,4.9
2022-12-01T13:02:17.856Z,4.8
2022-12-01T13:03:18.045Z,4.8
2022-12-01T13:04:17.760Z,4.8
2022-12-01T13:05:17.760Z,4.7
2022-12-01T13:06:17.759Z,4.7
2022-12-01T13:07:17.770Z,4.6
2022-12-01T13:08:17.761Z,4.5
2022-12-01T13:09:17.763Z,4.5
2022-12-01T13:10:17.765Z,4.4
2022-12-01T13:11:17.763Z,4.4
2022-12-01T13:12:17.763Z,4.4
2022-12-01T13:13:17.763Z,4.3
2022-12-01T13:14:17.761Z,4.3
2022-12-01T13:15:17.760Z,4.3
2022-12-01T13:16:17.798Z,4.2
2022-12-01T13:17:17.762Z,4.2
2022-12-01T13:18:17.762Z,4.2
2022-12-01T13:19:17.765Z,4.1
2022-12-01T13:20:17.763Z,4.1
2022-12-01T13:21:17.824Z,4.1
2022-12-01T13:22:17.766Z,4.1
2022-12-01T13:23:17.760Z,4.1
2022-12-01T13:24:22.645Z,4.1
2022-12-01T13:25:17.755Z,4.2
2022-12-01T13:26:17.758Z,4.2
2022-12-01T13:27:17.847Z,4.2
2022-12-01T13:28:17.762Z,4.3
2022-12-01T13:29:17.780Z,4.4
2022-12-01T13:30:17.760Z,4.4
2022-12-01T13:31:17.808Z,4.4
2022-12-01T13:32:17.762Z,4.4
2022-12-01T13:33:17.758Z,4.5
2022-12-01T13:34:17.783Z,4.5
2022-12-01T13:35:17.759Z,4.6
2022-12-01T13:36:46.078Z,4.6
2022-12-01T13:37:17.761Z,4.6
2022-12-01T13:38:17.862Z,4.7
2022-12-01T13:39:17.766Z,4.7
2022-12-01T13:40:17.761Z,4.7
2022-12-01T13:41:17.761Z,4.7
2022-12-01T13:42:17.761Z,4.7
2022-12-01T13:43:17.757Z,4.7
2022-12-01T13:44:20.115Z,4.7
2022-12-01T13:45:17.761Z,4.7
2022-12-01T13:46:17.838Z,4.7
2022-12-01T13:47:17.762Z,4.7
2022-12-01T13:48:17.763Z,4.7
2022-12-01T13:49:17.771Z,4.7